Time;durP1;ratioP1;P1;durP2;ratioP2;P2;SDS_P1;SDS_P2;PMS_P1;PMS_P2;Temp;Humidity;BMP_temperature;BMP_pressure;BME280_temperature;BME280_humidity;BME280_pressure;Samples;Min_cycle;Max_cycle;Signal;HPM_P1;HPM_P2
2021/05/01 00:00:02;;;;;;;58.70;33.72;;;;;;;9.11;92.45;100890.53;5066157;28;20028;-70
2021/05/01 00:02:37;;;;;;;65.43;35.28;;;;;;;9.08;92.39;100893.38;5065802;28;20075;-70
2021/05/01 00:05:03;;;;;;;59.45;35.53;;;;;;;9.03;92.81;100892.75;5065089;28;20044;-70
2021/05/01 00:07:28;;;;;;;57.80;33.15;;;;;;;8.99;93.12;100889.41;5063958;28;20036;-71
2021/05/01 00:09:54;;;;;;;64.70;34.88;;;;;;;8.93;93.23;100893.28;5066267;28;20032;-70
2021/05/01 00:12:19;;;;;;;65.22;36.97;;;;;;;8.84;93.64;100888.41;5063252;28;20048;-70
2021/05/01 00:14:45;;;;;;;65.50;36.05;;;;;;;8.82;93.94;100884.13;5066291;28;20032;-70
2021/05/01 00:17:10;;;;;;;70.68;36.13;;;;;;;8.78;94.74;100891.44;5067214;28;20033;-71
2021/05/01 00:19:35;;;;;;;62.65;36.22;;;;;;;8.77;94.90;100892.38;5066852;28;20032;-69
2021/05/01 00:22:01;;;;;;;62.35;36.60;;;;;;;8.72;95.70;100888.22;5066811;28;20077;-70
2021/05/01 00:24:27;;;;;;;68.95;37.83;;;;;;;8.66;96.02;100884.06;5062438;28;20036;-72
2021/05/01 00:26:52;;;;;;;67.97;37.25;;;;;;;8.67;96.26;100887.59;5067615;28;20093;-72
2021/05/01 00:29:18;;;;;;;61.28;35.90;;;;;;;8.72;95.82;100889.09;5066179;28;20044;-73
2021/05/01 00:31:43;;;;;;;68.50;36.72;;;;;;;8.73;96.10;100885.47;5062970;28;20024;-73
2021/05/01 00:34:09;;;;;;;72.70;40.40;;;;;;;8.63;96.54;100900.28;5064893;28;20051;-70
2021/05/01 00:36:37;;;;;;;64.57;37.35;;;;;;;8.53;97.30;100891.00;5066314;28;20085;-69
2021/05/01 00:39:03;;;;;;;70.70;40.03;;;;;;;8.59;97.16;100887.16;5065853;28;20116;-70
2021/05/01 00:41:28;;;;;;;69.45;38.17;;;;;;;8.49;97.51;100882.28;5083194;28;20111;-70
2021/05/01 00:43:54;;;;;;;71.78;40.55;;;;;;;8.43;97.76;100892.47;5066163;28;20638;-70
2021/05/01 00:46:20;;;;;;;72.40;40.83;;;;;;;8.40;98.28;100892.59;5065258;28;20045;-71
2021/05/01 00:48:46;;;;;;;75.20;39.47;;;;;;;8.40;98.69;100885.44;5065166;28;20077;-70
2021/05/01 00:51:11;;;;;;;73.93;40.05;;;;;;;8.39;98.96;100885.56;5064604;28;20040;-70
2021/05/01 00:53:38;;;;;;;76.50;41.65;;;;;;;8.35;99.16;100883.97;5065421;28;20036;-70
2021/05/01 00:56:04;;;;;;;83.97;42.80;;;;;;;8.40;99.03;100888.13;5073834;28;20031;-70
2021/05/01 00:58:30;;;;;;;80.03;42.85;;;;;;;8.37;99.42;100877.59;5065783;28;20055;-69
2021/05/01 01:03:34;;;;;;;76.88;41.58;;;;;;;8.30;99.82;100875.28;5066203;28;20043;-69
2021/05/01 01:06:00;;;;;;;74.00;40.67;;;;;;;8.25;100.00;100886.22;5065021;28;20401;-70
2021/05/01 01:08:26;;;;;;;79.38;43.10;;;;;;;8.15;100.00;100881.44;5064117;28;20058;-70
2021/05/01 01:10:53;;;;;;;79.40;41.40;;;;;;;8.15;100.00;100876.09;5061049;28;20480;-69
2021/05/01 01:13:19;;;;;;;79.43;44.40;;;;;;;8.11;100.00;100875.38;5067634;28;20185;-70
2021/05/01 01:15:44;;;;;;;79.78;42.35;;;;;;;8.07;100.00;100868.47;5071752;28;20036;-69
2021/05/01 01:18:10;;;;;;;80.70;41.75;;;;;;;8.08;100.00;100868.38;5068395;28;20032;-70
2021/05/01 01:20:35;;;;;;;75.78;42.13;;;;;;;8.07;100.00;100865.78;5068215;28;20032;-70
2021/05/01 01:23:01;;;;;;;74.90;41.53;;;;;;;8.04;100.00;100864.13;5066753;28;20117;-70
2021/05/01 01:25:26;;;;;;;78.88;42.85;;;;;;;8.04;100.00;100865.94;5073942;28;20029;-69
2021/05/01 01:27:52;;;;;;;79.00;43.40;;;;;;;8.01;100.00;100864.31;5077646;28;20065;-71
2021/05/01 01:30:25;;;;;;;80.95;43.10;;;;;;;7.97;100.00;100868.06;5067886;28;20090;-70
2021/05/01 01:32:51;;;;;;;80.78;42.95;;;;;;;7.95;100.00;100869.09;5070874;28;20178;-70
2021/05/01 01:35:17;;;;;;;80.35;42.03;;;;;;;7.95;100.00;100864.63;5069550;28;20021;-68
2021/05/01 01:37:44;;;;;;;80.93;43.03;;;;;;;7.96;100.00;100866.31;5068962;28;20036;-69
2021/05/01 01:40:12;;;;;;;81.45;43.53;;;;;;;7.96;100.00;100865.50;5066995;28;20072;-70
2021/05/01 01:42:40;;;;;;;76.35;41.67;;;;;;;7.96;99.78;100866.31;5070091;28;20033;-70
2021/05/01 01:45:07;;;;;;;75.30;42.10;;;;;;;7.93;99.63;100869.16;5069429;28;20032;-69
2021/05/01 01:47:32;;;;;;;75.15;41.05;;;;;;;7.88;99.48;100873.88;5070544;28;20028;-70
2021/05/01 01:49:58;;;;;;;71.78;39.92;;;;;;;7.85;99.63;100862.47;5049136;28;20492;-70
2021/05/01 01:52:23;;;;;;;77.15;42.03;;;;;;;7.81;99.28;100866.25;5066576;28;20047;-70
2021/05/01 01:54:49;;;;;;;72.35;40.40;;;;;;;7.79;99.31;100858.31;5070402;28;20100;-70
2021/05/01 01:57:14;;;;;;;77.38;42.83;;;;;;;7.78;99.18;100856.56;5067842;28;20112;-70
2021/05/01 01:59:40;;;;;;;74.28;40.38;;;;;;;7.75;98.79;100864.75;5071250;28;20121;-70
2021/05/01 02:02:06;;;;;;;70.50;39.97;;;;;;;7.69;98.20;100867.72;5067957;28;20136;-70
2021/05/01 02:04:31;;;;;;;72.53;38.38;;;;;;;7.65;98.04;100860.84;5065315;28;20120;-69
2021/05/01 02:06:57;;;;;;;70.65;40.67;;;;;;;7.62;97.52;100860.97;5071503;28;20028;-71
2021/05/01 02:09:22;;;;;;;73.22;40.70;;;;;;;7.58;97.64;100857.59;5067470;28;20028;-70
2021/05/01 02:11:48;;;;;;;75.80;41.90;;;;;;;7.54;97.46;100872.03;5068373;28;20039;-69
2021/05/01 02:14:13;;;;;;;71.68;40.22;;;;;;;7.51;97.17;100868.66;5073972;28;20113;-70
2021/05/01 02:16:39;;;;;;;77.78;41.53;;;;;;;7.47;96.99;100867.91;5067593;28;20063;-70
2021/05/01 02:19:04;;;;;;;70.38;38.42;;;;;;;7.45;96.75;100869.81;5068225;28;20421;-68
2021/05/01 02:21:30;;;;;;;74.95;39.42;;;;;;;7.38;96.68;100867.53;5067567;28;20180;-70
2021/05/01 02:23:56;;;;;;;69.35;37.10;;;;;;;7.32;96.70;100880.22;5061924;28;20101;-70
2021/05/01 02:26:21;;;;;;;74.63;41.50;;;;;;;7.27;96.35;100871.59;5066924;28;20870;-70
2021/05/01 02:28:46;;;;;;;74.90;39.20;;;;;;;7.23;96.37;100874.44;5069152;28;20028;-68
2021/05/01 02:31:12;;;;;;;72.05;40.47;;;;;;;7.20;96.13;100872.81;5066598;28;20089;-70
2021/05/01 02:33:38;;;;;;;77.53;41.72;;;;;;;7.15;96.22;100872.19;5068524;28;20775;-70
2021/05/01 02:36:04;;;;;;;73.63;40.22;;;;;;;7.12;96.05;100866.97;5066762;28;20040;-69
2021/05/01 02:38:30;;;;;;;79.60;42.05;;;;;;;7.08;96.15;100876.06;5067933;28;20037;-70
2021/05/01 02:40:55;;;;;;;76.40;41.47;;;;;;;7.04;96.18;100873.59;5065907;28;20039;-69
2021/05/01 02:43:20;;;;;;;75.22;42.30;;;;;;;6.98;95.99;100865.88;5068211;28;20036;-67
2021/05/01 02:45:46;;;;;;;73.47;39.05;;;;;;;6.92;96.12;100869.69;5066158;28;20031;-70
2021/05/01 02:48:12;;;;;;;71.82;39.33;;;;;;;6.88;96.34;100869.00;5068060;28;20039;-70
2021/05/01 02:50:38;;;;;;;72.57;39.90;;;;;;;6.83;96.12;100860.34;5065008;28;20489;-69
2021/05/01 02:53:04;;;;;;;77.13;40.58;;;;;;;6.78;96.15;100861.50;5068130;28;20028;-70
2021/05/01 02:55:30;;;;;;;73.18;39.85;;;;;;;6.72;96.17;100859.13;5066868;28;20046;-70
2021/05/01 02:57:56;;;;;;;74.70;39.08;;;;;;;6.65;96.36;100860.34;5069647;28;20024;-69
2021/05/01 03:00:24;;;;;;;74.45;41.13;;;;;;;6.60;96.70;100857.00;5064687;28;20086;-70
2021/05/01 03:02:50;;;;;;;72.68;40.08;;;;;;;6.54;96.71;100852.81;5068232;28;20040;-70
2021/05/01 03:05:16;;;;;;;76.15;39.70;;;;;;;6.52;96.94;100856.47;5067112;28;20503;-70
2021/05/01 03:07:43;;;;;;;70.60;38.83;;;;;;;6.47;96.89;100852.25;5071516;28;20036;-70
2021/05/01 03:10:18;;;;;;;73.38;39.70;;;;;;;6.36;96.72;100846.50;5064622;28;20039;-68
2021/05/01 03:12:43;;;;;;;73.38;38.40;;;;;;;6.30;96.84;100843.25;5079980;28;20149;-70
2021/05/01 03:15:10;;;;;;;68.80;38.13;;;;;;;6.26;96.63;100841.66;5066486;28;20076;-70
2021/05/01 03:17:35;;;;;;;72.20;37.97;;;;;;;6.25;96.40;100846.13;5086569;28;20104;-70
2021/05/01 03:20:02;;;;;;;70.20;38.22;;;;;;;6.20;96.11;100841.94;5066483;28;20528;-68
2021/05/01 03:22:28;;;;;;;66.72;36.83;;;;;;;6.15;96.16;100839.47;5081611;28;20158;-70
2021/05/01 03:24:54;;;;;;;72.47;38.20;;;;;;;6.11;96.16;100829.03;5066664;28;20119;-69
2021/05/01 03:27:20;;;;;;;75.57;38.30;;;;;;;6.06;96.01;100835.41;5073372;28;20197;-70
2021/05/01 03:29:46;;;;;;;65.70;37.78;;;;;;;6.05;96.12;100843.44;5088278;28;20373;-69
2021/05/01 03:32:12;;;;;;;75.20;38.00;;;;;;;6.01;95.89;100848.06;5072746;28;20404;-69
2021/05/01 03:34:37;;;;;;;73.53;39.10;;;;;;;5.99;96.14;100849.06;5068150;28;20119;-68
2021/05/01 03:37:03;;;;;;;77.03;39.85;;;;;;;5.95;96.25;100847.47;5060569;28;20107;-70
2021/05/01 03:39:28;;;;;;;81.22;39.75;;;;;;;5.90;96.73;100852.13;5067817;28;20157;-69
2021/05/01 03:41:54;;;;;;;69.85;37.92;;;;;;;5.85;97.07;100852.31;5050811;28;20507;-67
2021/05/01 03:44:20;;;;;;;74.95;39.28;;;;;;;5.85;97.17;100851.44;5066463;28;20153;-69
2021/05/01 03:46:45;;;;;;;68.85;36.75;;;;;;;5.82;97.32;100846.22;5048847;28;20492;-67
2021/05/01 03:49:11;;;;;;;65.82;35.25;;;;;;;5.74;97.03;100840.38;5066877;28;20550;-69
2021/05/01 03:51:36;;;;;;;64.25;35.53;;;;;;;5.59;96.67;100848.06;5061629;28;20520;-69
2021/05/01 03:54:02;;;;;;;71.30;35.70;;;;;;;5.47;96.80;100856.56;5066572;28;20081;-69
2021/05/01 03:56:30;;;;;;;67.65;35.20;;;;;;;5.46;96.58;100853.97;5065661;28;20051;-68
2021/05/01 03:58:56;;;;;;;71.40;36.55;;;;;;;5.47;96.49;100851.25;5065701;28;20036;-69
2021/05/01 04:01:21;;;;;;;76.20;37.47;;;;;;;5.48;96.12;100850.31;5066690;28;20337;-68
2021/05/01 04:03:47;;;;;;;65.90;36.45;;;;;;;5.50;96.21;100851.09;5065793;28;20068;-70
2021/05/01 04:06:12;;;;;;;74.22;38.35;;;;;;;5.50;96.22;100853.75;5071212;28;20392;-69
2021/05/01 04:08:38;;;;;;;67.43;35.85;;;;;;;5.50;96.38;100835.13;5068845;28;20028;-68
2021/05/01 04:11:04;;;;;;;65.50;35.20;;;;;;;5.50;96.26;100851.09;5064867;28;20124;-70
2021/05/01 04:13:30;;;;;;;66.93;35.70;;;;;;;5.50;96.25;100850.22;5065684;28;20447;-68
2021/05/01 04:15:56;;;;;;;62.30;34.15;;;;;;;5.50;96.20;100851.09;5065508;28;20020;-69
2021/05/01 04:18:21;;;;;;;70.53;36.10;;;;;;;5.48;96.17;100855.63;5081922;28;20024;-69
2021/05/01 04:20:47;;;;;;;66.60;36.00;;;;;;;5.47;95.89;100851.25;5045062;28;20033;-70
2021/05/01 04:23:13;;;;;;;67.15;35.95;;;;;;;5.46;96.06;100860.16;5085823;28;20103;-67
2021/05/01 04:25:39;;;;;;;62.00;33.78;;;;;;;5.45;95.92;100861.06;5066004;28;20028;-69
2021/05/01 04:28:05;;;;;;;63.47;34.60;;;;;;;5.44;95.88;100869.13;5066853;28;20028;-68
2021/05/01 04:30:33;;;;;;;67.15;34.75;;;;;;;5.42;95.86;100871.00;5064749;28;20029;-68
2021/05/01 04:32:58;;;;;;;67.72;34.67;;;;;;;5.39;95.82;100864.00;5081865;28;20099;-69
2021/05/01 04:35:24;;;;;;;65.00;34.42;;;;;;;5.37;96.01;100871.16;5066065;28;20038;-68
2021/05/01 04:37:50;;;;;;;68.82;34.30;;;;;;;5.33;95.91;100874.88;5066233;28;20512;-67
2021/05/01 04:40:16;;;;;;;66.07;35.88;;;;;;;5.28;96.14;100874.22;5065403;28;20374;-69
2021/05/01 04:42:47;;;;;;;70.22;36.30;;;;;;;5.21;96.29;100870.06;5066103;28;20040;-70
2021/05/01 04:45:17;;;;;;;61.63;33.80;;;;;;;5.17;96.42;100885.28;5066352;28;20109;-70
2021/05/01 04:47:44;;;;;;;73.20;35.92;;;;;;;5.11;96.79;100877.53;5065316;28;20809;-70
2021/05/01 04:50:11;;;;;;;64.25;35.95;;;;;;;5.07;96.99;100877.72;5065554;28;20075;-70
2021/05/01 04:52:36;;;;;;;67.80;36.67;;;;;;;5.04;97.31;100883.16;5063229;28;20063;-70
2021/05/01 04:55:09;;;;;;;71.32;38.13;;;;;;;5.01;97.81;100889.44;5065130;28;20101;-70
2021/05/01 04:57:35;;;;;;;75.00;34.63;;;;;;;4.98;97.97;100886.94;5065821;28;20443;-70
2021/05/01 05:00:02;;;;;;;66.80;36.53;;;;;;;4.97;98.24;100894.97;5066899;28;20037;-67
2021/05/01 05:02:28;;;;;;;66.65;33.40;;;;;;;4.98;98.41;100894.03;5064503;28;20455;-70
2021/05/01 05:04:53;;;;;;;69.45;36.20;;;;;;;5.01;98.75;100899.22;5082991;28;20115;-70
2021/05/01 05:07:18;;;;;;;77.43;36.72;;;;;;;5.05;99.07;100900.88;5064182;28;20033;-70
2021/05/01 05:09:44;;;;;;;68.90;36.95;;;;;;;5.09;99.32;100897.16;5065873;28;20028;-70
2021/05/01 05:12:09;;;;;;;71.03;36.80;;;;;;;5.13;99.58;100904.06;5062368;28;20024;-70
2021/05/01 05:14:35;;;;;;;64.97;35.25;;;;;;;5.19;99.78;100911.81;5065403;28;20477;-70
2021/05/01 05:17:00;;;;;;;67.20;35.13;;;;;;;5.24;99.83;100905.41;5064748;28;20028;-69
2021/05/01 05:19:25;;;;;;;60.90;33.90;;;;;;;5.31;99.96;100898.03;5052093;28;20123;-70
2021/05/01 05:21:51;;;;;;;66.95;33.25;;;;;;;5.40;99.81;100903.00;5066032;28;20034;-70
2021/05/01 05:24:16;;;;;;;65.35;33.85;;;;;;;5.48;99.91;100916.88;5086270;23;20045;-73
2021/05/01 05:26:41;;;;;;;65.20;34.83;;;;;;;5.57;99.57;100911.16;5065393;28;20055;-73
2021/05/01 05:29:09;;;;;;;75.03;37.53;;;;;;;5.67;99.42;100911.66;5063853;28;20039;-73
2021/05/01 05:31:35;;;;;;;63.13;35.35;;;;;;;5.76;99.43;100910.41;5062877;28;20043;-73
2021/05/01 05:34:00;;;;;;;70.30;35.10;;;;;;;5.85;99.58;100915.38;5058016;28;20036;-73
2021/05/01 05:36:26;;;;;;;75.15;36.75;;;;;;;5.95;100.00;100911.41;5063721;28;20028;-73
2021/05/01 05:38:51;;;;;;;71.85;36.85;;;;;;;6.04;100.00;100921.69;5048418;28;20029;-73
2021/05/01 05:41:17;;;;;;;70.35;38.58;;;;;;;6.13;100.00;100918.63;5045945;28;20531;-73
2021/05/01 05:43:42;;;;;;;71.38;37.20;;;;;;;6.28;100.00;100923.31;5043177;28;20048;-73
2021/05/01 05:46:14;;;;;;;78.63;39.88;;;;;;;6.45;100.00;100923.41;5051447;28;20037;-74
2021/05/01 05:48:40;;;;;;;76.55;39.50;;;;;;;6.62;100.00;100919.13;5047142;28;20032;-74
2021/05/01 05:51:06;;;;;;;73.32;39.28;;;;;;;6.86;100.00;100918.00;5040466;28;20036;-74
2021/05/01 05:53:33;;;;;;;75.40;38.60;;;;;;;7.20;100.00;100912.84;5059512;28;20067;-74
2021/05/01 05:55:58;;;;;;;74.00;38.53;;;;;;;7.59;100.00;100911.88;5046041;28;20129;-73
2021/05/01 05:58:24;;;;;;;64.55;35.17;;;;;;;8.00;99.70;100905.34;5051322;28;20029;-73
2021/05/01 06:00:50;;;;;;;64.18;34.83;;;;;;;8.39;97.16;100923.00;5042547;28;20021;-74
2021/05/01 06:03:16;;;;;;;58.63;33.00;;;;;;;8.73;94.98;100922.06;5043813;28;20493;-74
2021/05/01 06:05:45;;;;;;;58.92;32.88;;;;;;;9.02;93.25;100917.81;5043338;28;20086;-74
2021/05/01 06:08:11;;;;;;;57.78;32.47;;;;;;;9.27;89.53;100920.88;5047202;28;20029;-74
2021/05/01 06:10:39;;;;;;;57.65;31.55;;;;;;;9.54;88.56;100927.38;5050566;28;20370;-74
2021/05/01 06:13:05;;;;;;;57.05;30.50;;;;;;;9.67;87.41;100920.34;5057459;28;20545;-74
2021/05/01 06:15:32;;;;;;;54.50;31.67;;;;;;;9.87;86.22;100923.72;5031596;28;20025;-74
2021/05/01 06:18:01;;;;;;;50.90;29.25;;;;;;;10.04;85.04;100912.84;5066709;28;20033;-74
2021/05/01 06:20:28;;;;;;;50.60;27.45;;;;;;;10.02;84.22;100910.25;5050260;28;20028;-74
2021/05/01 06:22:54;;;;;;;50.47;25.73;;;;;;;10.00;84.40;100922.00;5050382;28;20105;-74
2021/05/01 06:25:21;;;;;;;43.53;26.13;;;;;;;9.94;83.90;100909.81;5051912;28;20669;-74
2021/05/01 06:27:50;;;;;;;50.88;28.00;;;;;;;9.99;84.06;100917.63;5049807;28;20111;-74
2021/05/01 06:30:16;;;;;;;57.63;28.45;;;;;;;10.05;84.41;100918.13;5047409;28;20017;-74
2021/05/01 06:32:42;;;;;;;51.25;28.10;;;;;;;10.16;84.09;100914.81;5046325;28;20612;-74
2021/05/01 06:35:08;;;;;;;53.95;27.95;;;;;;;10.21;83.27;100914.56;5048132;28;20116;-73
2021/05/01 06:37:34;;;;;;;45.17;26.08;;;;;;;10.27;82.67;100914.19;5048554;28;20037;-73
2021/05/01 06:40:06;;;;;;;57.17;28.85;;;;;;;10.16;82.75;100904.06;5047929;28;20831;-72
2021/05/01 06:42:43;;;;;;;48.10;27.55;;;;;;;10.02;83.50;100906.69;5030089;28;20037;-72
2021/05/01 06:45:10;;;;;;;43.67;25.52;;;;;;;9.94;84.28;100909.81;5048212;28;20124;-73
2021/05/01 06:47:41;;;;;;;49.20;25.88;;;;;;;10.01;84.95;100910.34;5046969;28;20032;-73
2021/05/01 06:50:12;;;;;;;47.78;25.73;;;;;;;9.99;85.98;100907.78;5051279;28;20040;-74
2021/05/01 06:52:47;;;;;;;52.75;28.33;;;;;;;10.00;85.19;100903.25;5030148;28;20040;-73
2021/05/01 06:55:17;;;;;;;47.25;27.02;;;;;;;10.36;82.44;100903.78;5059892;28;20182;-73
2021/05/01 06:58:04;;;;;;;42.33;25.73;;;;;;;10.66;80.45;100905.53;5047239;28;20040;-73
2021/05/01 07:00:30;;;;;;;55.17;26.85;;;;;;;10.85;79.63;100906.13;5050739;28;20037;-74
2021/05/01 07:03:06;;;;;;;58.05;30.38;;;;;;;11.06;77.63;100920.88;5048593;28;20420;-73
2021/05/01 07:05:34;;;;;;;44.08;28.23;;;;;;;11.67;75.62;100919.63;5045327;28;20098;-73
2021/05/01 07:08:00;;;;;;;41.92;26.38;;;;;;;12.09;73.28;100914.13;5044292;28;20488;-74
2021/05/01 07:10:25;;;;;;;54.85;27.15;;;;;;;11.96;72.01;100921.31;5047958;28;20051;-74
2021/05/01 07:12:51;;;;;;;48.42;25.17;;;;;;;12.12;71.42;100913.91;5042093;28;20484;-73
2021/05/01 07:15:19;;;;;;;45.08;25.88;;;;;;;11.66;72.62;100921.47;5053498;28;20115;-73
2021/05/01 07:17:49;;;;;;;47.67;24.10;;;;;;;12.28;72.90;100916.41;5047271;28;20037;-74
2021/05/01 07:20:15;;;;;;;44.17;24.67;;;;;;;13.04;68.52;100926.38;5046521;28;20187;-74
2021/05/01 07:22:41;;;;;;;47.13;26.77;;;;;;;13.16;67.06;100937.16;5048736;28;20543;-74
2021/05/01 07:25:09;;;;;;;44.88;24.85;;;;;;;13.28;65.50;100933.59;5040866;28;20436;-74
2021/05/01 07:28:04;;;;;;;46.08;24.52;;;;;;;12.67;66.61;100933.50;5047197;28;20037;-74
2021/05/01 07:30:32;;;;;;;38.70;22.17;;;;;;;12.13;67.26;100923.72;5046013;28;20102;-73
2021/05/01 07:33:09;;;;;;;37.60;23.35;;;;;;;12.22;67.83;100927.59;5047870;28;20025;-74
2021/05/01 07:35:37;;;;;;;40.88;24.88;;;;;;;12.12;68.57;100916.59;5046528;28;20454;-74
2021/05/01 07:38:12;;;;;;;36.63;22.85;;;;;;;12.95;65.70;100918.00;5063161;28;20048;-74
2021/05/01 07:40:38;;;;;;;45.10;24.13;;;;;;;12.90;64.98;100916.56;5047606;28;20029;-74
2021/05/01 07:43:03;;;;;;;40.25;23.15;;;;;;;12.79;65.43;100914.63;5048292;28;20188;-74
2021/05/01 07:45:29;;;;;;;41.53;22.00;;;;;;;12.48;64.58;100917.75;5046306;28;20133;-74
2021/05/01 07:47:56;;;;;;;38.28;21.98;;;;;;;13.00;64.51;100922.19;5048648;28;20032;-74
2021/05/01 07:50:26;;;;;;;32.13;20.48;;;;;;;13.81;61.18;100915.34;5047055;28;20508;-74
2021/05/01 07:52:52;;;;;;;38.55;19.92;;;;;;;13.88;59.45;100915.72;5047828;28;20025;-74
2021/05/01 07:55:18;;;;;;;32.40;18.48;;;;;;;14.34;57.71;100910.38;5047354;28;20080;-74
2021/05/01 07:57:44;;;;;;;32.15;18.60;;;;;;;14.79;55.82;100919.50;5046373;28;20136;-74
2021/05/01 08:00:12;;;;;;;28.52;17.48;;;;;;;14.47;55.82;100911.19;5047306;28;20556;-74
2021/05/01 08:02:41;;;;;;;31.88;17.35;;;;;;;14.32;55.78;100912.38;5042556;28;20052;-74
2021/05/01 08:05:09;;;;;;;31.48;18.40;;;;;;;14.40;57.47;100910.81;5062639;28;20192;-74
2021/05/01 08:07:34;;;;;;;38.92;19.75;;;;;;;14.98;54.69;100917.94;5046088;28;20029;-74
2021/05/01 08:10:00;;;;;;;30.67;17.25;;;;;;;14.87;53.72;100914.38;5046759;28;20025;-74
2021/05/01 08:12:25;;;;;;;28.77;17.55;;;;;;;14.37;54.51;100919.16;5044075;28;20029;-75
2021/05/01 08:14:50;;;;;;;28.00;17.42;;;;;;;14.85;53.29;100916.31;5052461;28;20029;-74
2021/05/01 08:17:16;;;;;;;27.27;16.30;;;;;;;15.26;51.66;100919.28;5049700;28;20067;-75
2021/05/01 08:19:41;;;;;;;29.08;17.50;;;;;;;15.59;50.42;100917.56;5054489;28;20108;-75
2021/05/01 08:22:07;;;;;;;30.08;16.92;;;;;;;15.47;51.90;100926.63;5046540;28;20032;-75
2021/05/01 08:24:32;;;;;;;32.53;13.98;;;;;;;15.85;48.48;100924.38;5053928;28;20032;-74
2021/05/01 08:26:58;;;;;;;22.00;14.15;;;;;;;16.08;47.87;100920.63;5040607;28;20029;-75
2021/05/01 08:29:23;;;;;;;22.67;13.60;;;;;;;16.08;46.71;100922.44;5049649;28;20036;-75
2021/05/01 08:31:49;;;;;;;22.77;13.82;;;;;;;16.46;47.91;100920.06;5047110;28;20032;-75
2021/05/01 08:34:14;;;;;;;20.55;13.02;;;;;;;16.45;45.94;100925.63;5044429;28;20037;-75
2021/05/01 08:36:39;;;;;;;22.25;12.48;;;;;;;16.83;44.88;100928.63;5045969;28;20041;-75
2021/05/01 08:39:05;;;;;;;19.63;11.68;;;;;;;16.79;43.14;100927.16;5045329;28;20116;-74
2021/05/01 08:41:31;;;;;;;18.90;11.90;;;;;;;16.67;42.17;100925.50;5046428;28;20064;-75
2021/05/01 08:44:08;;;;;;;20.25;11.45;;;;;;;17.03;41.87;100926.03;5047912;28;20067;-75
2021/05/01 08:46:35;;;;;;;21.73;11.63;;;;;;;17.46;42.75;100926.66;5045327;28;20095;-75
2021/05/01 08:49:02;;;;;;;16.45;10.95;;;;;;;17.16;43.07;100924.78;5042727;28;20028;-75
2021/05/01 08:51:27;;;;;;;16.45;10.52;;;;;;;17.69;41.51;100925.44;5041351;28;20142;-76
2021/05/01 08:53:53;;;;;;;20.45;10.98;;;;;;;17.76;40.07;100929.31;5061687;28;20522;-75
2021/05/01 08:56:19;;;;;;;14.48;10.52;;;;;;;17.52;41.06;100931.50;5045678;28;20037;-75
2021/05/01 08:58:44;;;;;;;12.82;9.35;;;;;;;17.01;42.46;100922.56;5044360;28;20037;-75
2021/05/01 09:01:13;;;;;;;15.70;10.15;;;;;;;16.27;43.66;100927.19;5042980;28;20045;-75
2021/05/01 09:03:38;;;;;;;21.80;10.30;;;;;;;16.84;42.65;100934.91;5046335;28;20024;-75
2021/05/01 09:06:07;;;;;;;17.70;9.48;;;;;;;17.04;40.75;100934.00;5043126;28;20037;-75
2021/05/01 09:08:39;;;;;;;15.88;10.13;;;;;;;17.40;40.45;100933.44;5046951;28;20036;-75
2021/05/01 09:11:05;;;;;;;13.48;9.10;;;;;;;17.67;39.66;100930.16;5046363;28;20320;-75
2021/05/01 09:13:31;;;;;;;16.90;9.02;;;;;;;17.75;39.12;100924.88;5046875;28;20111;-76
2021/05/01 09:16:06;;;;;;;12.85;8.50;;;;;;;17.41;38.51;100939.75;5045707;28;20124;-74
2021/05/01 09:19:01;;;;;;;12.07;8.95;;;;;;;16.52;39.38;100930.38;5039947;28;20090;-75
2021/05/01 09:21:30;;;;;;;16.98;10.27;;;;;;;15.66;41.74;100921.47;5038010;28;20029;-75
2021/05/01 09:23:55;;;;;;;14.65;9.63;;;;;;;15.97;42.10;100923.38;5053095;28;20037;-75
2021/05/01 09:26:39;;;;;;;17.45;9.18;;;;;;;16.22;40.37;100918.59;5043400;28;20198;-75
2021/05/01 09:29:05;;;;;;;18.75;11.23;;;;;;;15.88;41.89;100924.13;5060028;28;20048;-75
2021/05/01 09:31:43;;;;;;;17.05;10.63;;;;;;;15.93;42.62;100919.16;5046159;28;20021;-75
2021/05/01 09:34:08;;;;;;;14.70;9.80;;;;;;;16.48;39.83;100930.75;5050033;28;20037;-75
2021/05/01 09:36:35;;;;;;;13.70;10.10;;;;;;;16.55;38.81;100930.09;5043169;28;20094;-75
2021/05/01 09:39:03;;;;;;;17.27;9.35;;;;;;;16.57;39.99;100932.69;5043954;28;20029;-75
2021/05/01 09:41:42;;;;;;;16.83;10.25;;;;;;;16.13;41.88;100918.38;5046153;28;20044;-76
2021/05/01 09:44:16;;;;;;;19.42;10.15;;;;;;;16.49;39.79;100925.22;5044927;28;20024;-75
2021/05/01 09:46:53;;;;;;;12.30;8.93;;;;;;;16.93;40.54;100929.53;5045907;28;20024;-76
2021/05/01 09:49:25;;;;;;;9.93;6.68;;;;;;;17.18;35.89;100927.38;5073888;28;20131;-75
2021/05/01 09:52:00;;;;;;;9.47;7.30;;;;;;;17.38;36.03;100931.88;5049375;28;20033;-76
2021/05/01 09:54:29;;;;;;;11.18;7.15;;;;;;;17.18;35.54;100932.78;5034271;28;20027;-75
2021/05/01 09:56:57;;;;;;;9.88;6.45;;;;;;;17.23;35.60;100930.53;5049520;28;20028;-75
2021/05/01 09:59:43;;;;;;;12.45;6.47;;;;;;;17.61;35.70;100932.56;5049591;28;20047;-76
2021/05/01 10:02:11;;;;;;;8.00;5.80;;;;;;;17.90;32.68;100935.34;5043529;28;20041;-76
2021/05/01 10:04:37;;;;;;;9.88;6.20;;;;;;;17.78;31.79;100932.75;5048277;28;20029;-76
2021/05/01 10:07:08;;;;;;;7.95;5.40;;;;;;;17.61;32.78;100925.28;5046911;28;20281;-75
2021/05/01 10:09:36;;;;;;;10.65;6.00;;;;;;;17.00;33.11;100924.44;5049839;28;20033;-75
2021/05/01 10:12:22;;;;;;;7.57;6.20;;;;;;;16.93;35.78;100918.69;5060984;28;20029;-75
2021/05/01 10:14:54;;;;;;;8.85;6.57;;;;;;;17.25;35.31;100923.13;5050631;28;20056;-76
2021/05/01 10:17:23;;;;;;;10.98;6.10;;;;;;;17.40;34.65;100928.03;5047408;28;20147;-76
2021/05/01 10:19:54;;;;;;;9.73;5.25;;;;;;;16.78;33.17;100925.47;5049449;28;20036;-76
2021/05/01 10:22:50;;;;;;;13.65;5.80;;;;;;;16.13;33.76;100918.38;5047513;28;20045;-75
2021/05/01 10:25:15;;;;;;;12.68;5.32;;;;;;;15.84;35.93;100928.06;5062571;28;20063;-75
2021/05/01 10:28:00;;;;;;;9.55;6.03;;;;;;;15.77;35.96;100922.31;5045649;28;20060;-75
2021/05/01 10:30:40;;;;;;;9.45;5.40;;;;;;;15.83;36.83;100923.66;5045566;28;20511;-75
2021/05/01 10:36:18;;;;;;;9.55;6.82;;;;;;;16.63;35.13;100920.50;5042225;28;20051;-75
2021/05/01 10:38:43;;;;;;;9.93;6.57;;;;;;;16.69;37.36;100926.25;5047618;28;20041;-75
2021/05/01 10:41:18;;;;;;;7.93;5.72;;;;;;;16.69;33.85;100914.53;5049380;28;20495;-76
2021/05/01 10:43:56;;;;;;;11.57;5.47;;;;;;;16.99;34.60;100917.28;5049022;28;20040;-76
2021/05/01 10:46:30;;;;;;;12.52;4.55;;;;;;;17.36;33.42;100915.72;5048070;28;20032;-76
2021/05/01 10:48:58;;;;;;;5.97;3.95;;;;;;;17.42;31.27;100914.31;5051906;28;20029;-75
2021/05/01 10:51:26;;;;;;;8.45;5.10;;;;;;;17.71;33.62;100909.84;5063394;28;20025;-76
2021/05/01 10:54:10;;;;;;;12.73;5.28;;;;;;;17.79;33.40;100903.72;5047716;28;20033;-76
2021/05/01 10:56:38;;;;;;;10.15;5.50;;;;;;;17.78;34.17;100910.16;5046746;28;20028;-76
2021/05/01 10:59:12;;;;;;;6.75;4.65;;;;;;;18.05;33.03;100898.63;5049046;28;20100;-76
2021/05/01 11:01:47;;;;;;;7.07;4.03;;;;;;;17.92;31.47;100909.75;5045192;28;20473;-76
2021/05/01 11:04:17;;;;;;;12.48;4.75;;;;;;;17.56;32.29;100907.66;5053305;28;20523;-75
2021/05/01 11:06:48;;;;;;;8.18;4.35;;;;;;;17.15;34.59;100908.66;5047287;28;20504;-74
2021/05/01 11:09:40;;;;;;;7.15;4.68;;;;;;;16.60;35.11;100902.66;5047885;28;20124;-76
2021/05/01 11:12:11;;;;;;;8.80;4.85;;;;;;;16.04;32.93;100902.91;5048399;28;20041;-76
2021/05/01 11:15:02;;;;;;;7.90;4.68;;;;;;;16.11;34.51;100912.22;5048112;28;20432;-75
2021/05/01 11:17:37;;;;;;;6.68;4.32;;;;;;;16.01;34.70;100911.28;5053503;28;20493;-76
2021/05/01 11:20:05;;;;;;;6.78;4.13;;;;;;;15.92;34.94;100909.34;5049945;28;20029;-76
2021/05/01 11:22:33;;;;;;;8.10;4.43;;;;;;;16.19;35.98;100901.59;5048725;28;20582;-76